createdAt,value
2023-03-12T00:02:41.596Z,45.54
2023-03-12T00:05:08.016Z,45.39
2023-03-12T00:07:34.338Z,45.52
2023-03-12T00:10:00.680Z,45.47
2023-03-12T00:12:27.014Z,46.41
2023-03-12T00:14:53.480Z,45.39
2023-03-12T00:17:19.839Z,46.05
2023-03-12T00:19:46.195Z,45.55
2023-03-12T00:22:12.558Z,45.24
2023-03-12T00:24:38.890Z,45.43
2023-03-12T00:27:05.308Z,45.73
2023-03-12T00:29:31.641Z,46.75
2023-03-12T00:31:57.960Z,45.57
2023-03-12T00:34:24.302Z,45.38
2023-03-12T00:36:50.622Z,45.77
2023-03-12T00:39:16.979Z,45.49
2023-03-12T00:41:43.342Z,45.53
2023-03-12T00:44:09.768Z,45.72
2023-03-12T00:46:36.161Z,45.58
2023-03-12T00:49:02.511Z,45.55
2023-03-12T00:51:28.883Z,45.67
2023-03-12T00:53:55.217Z,45.39
2023-03-12T00:56:21.571Z,46.13
2023-03-12T00:58:47.940Z,45.91
2023-03-12T01:01:14.337Z,45.80
2023-03-12T01:03:40.750Z,45.94
2023-03-12T01:06:07.134Z,45.46
2023-03-12T01:08:33.493Z,45.89
2023-03-12T01:10:59.831Z,45.58
2023-03-12T01:13:26.236Z,46.44
2023-03-12T01:15:52.583Z,45.51
2023-03-12T01:21:02.851Z,46.40
2023-03-12T01:23:29.181Z,45.36
2023-03-12T01:25:55.604Z,47.13
2023-03-12T01:28:21.962Z,45.75
2023-03-12T01:30:48.378Z,45.72
2023-03-12T01:35:59.404Z,46.03
2023-03-12T01:38:25.818Z,46.02
2023-03-12T01:40:52.200Z,45.65
2023-03-12T01:43:18.534Z,46.03
2023-03-12T01:45:44.908Z,45.63
2023-03-12T01:51:05.128Z,45.86
2023-03-12T01:53:31.457Z,45.72
2023-03-12T01:55:57.788Z,46.06
2023-03-12T01:58:24.114Z,45.66
2023-03-12T02:00:50.505Z,45.80
2023-03-12T02:06:10.618Z,45.75
2023-03-12T02:08:36.955Z,45.91
2023-03-12T02:11:03.318Z,45.93
2023-03-12T02:13:29.748Z,45.71
2023-03-12T02:15:56.078Z,45.57
2023-03-12T02:21:06.386Z,46.74
2023-03-12T02:23:32.743Z,45.95
2023-03-12T02:25:59.117Z,46.26
2023-03-12T02:28:25.472Z,45.57
2023-03-12T02:30:51.958Z,46.84
2023-03-12T02:36:02.121Z,45.24
2023-03-12T02:38:28.463Z,46.38
2023-03-12T02:40:54.808Z,45.68
2023-03-12T02:43:21.167Z,45.81
2023-03-12T02:45:47.683Z,45.62
2023-03-12T02:50:58.090Z,46.42
2023-03-12T02:53:24.403Z,45.74
2023-03-12T02:55:50.752Z,45.71
2023-03-12T02:58:17.149Z,45.55
2023-03-12T03:00:43.515Z,45.78
2023-03-12T03:06:03.812Z,45.64
2023-03-12T03:08:30.171Z,45.54
2023-03-12T03:10:56.480Z,46.32
2023-03-12T03:13:22.867Z,45.74
2023-03-12T03:15:49.234Z,46.12
2023-03-12T03:20:59.627Z,46.45
2023-03-12T03:23:26.046Z,45.80
2023-03-12T03:25:52.463Z,45.69
2023-03-12T03:28:18.824Z,45.76
2023-03-12T03:30:45.198Z,46.46
2023-03-12T03:36:05.399Z,45.75
2023-03-12T03:38:31.819Z,46.29
2023-03-12T03:40:58.166Z,45.29
2023-03-12T03:43:24.499Z,46.07
2023-03-12T03:45:50.866Z,45.56
2023-03-12T03:51:00.879Z,45.65
2023-03-12T03:53:27.216Z,45.76
2023-03-12T03:55:53.631Z,45.83
2023-03-12T03:58:20.020Z,45.41
2023-03-12T04:00:46.346Z,45.56
2023-03-12T04:03:12.691Z,45.97
2023-03-12T04:05:39.071Z,45.43
2023-03-12T04:08:05.521Z,45.83
2023-03-12T04:10:31.855Z,44.88
2023-03-12T04:12:58.171Z,45.94
2023-03-12T04:15:24.512Z,45.37
2023-03-12T04:17:53.653Z,45.75
2023-03-12T04:20:20.142Z,45.40
2023-03-12T04:22:46.467Z,44.87
2023-03-12T04:25:12.909Z,45.21
2023-03-12T04:27:39.243Z,44.98
2023-03-12T04:30:05.626Z,45.02
2023-03-12T04:32:32.028Z,45.10
2023-03-12T04:34:58.388Z,45.25
2023-03-12T04:37:24.734Z,45.34
2023-03-12T04:39:51.065Z,44.89
2023-03-12T04:42:17.416Z,45.26
2023-03-12T04:44:43.750Z,45.11
2023-03-12T04:47:10.128Z,45.23
2023-03-12T04:49:36.449Z,45.08
2023-03-12T04:52:02.847Z,45.51
2023-03-12T04:54:29.172Z,44.98
2023-03-12T04:56:55.486Z,45.21
2023-03-12T04:59:21.797Z,45.11
2023-03-12T05:01:48.136Z,45.88
2023-03-12T05:04:14.613Z,46.06
2023-03-12T05:09:24.876Z,45.01
2023-03-12T05:11:51.209Z,45.20
2023-03-12T05:14:17.530Z,44.59
2023-03-12T05:16:43.901Z,44.73
2023-03-12T05:19:10.264Z,44.39
2023-03-12T05:24:30.288Z,45.53
2023-03-12T05:26:56.631Z,44.83
2023-03-12T05:29:23.005Z,44.51
2023-03-12T05:31:49.325Z,44.79
2023-03-12T05:34:15.766Z,44.21
2023-03-12T05:39:36.173Z,44.72
2023-03-12T05:42:02.566Z,45.25
2023-03-12T05:44:28.906Z,44.84
2023-03-12T05:46:57.225Z,45.23
2023-03-12T05:49:25.096Z,46.06
2023-03-12T05:54:35.486Z,46.12
2023-03-12T05:57:04.635Z,46.43
2023-03-12T05:59:31.989Z,46.33
2023-03-12T06:01:58.449Z,46.66
2023-03-12T06:04:24.805Z,46.67
2023-03-12T06:09:46.352Z,46.37
2023-03-12T06:12:14.652Z,46.09
2023-03-12T06:14:41.890Z,46.33
2023-03-12T06:17:08.400Z,45.86
2023-03-12T06:19:34.854Z,46.23
2023-03-12T06:24:55.985Z,46.00
2023-03-12T06:27:23.256Z,45.20
2023-03-12T06:29:49.676Z,45.64
2023-03-12T06:32:17.007Z,45.76
2023-03-12T06:34:43.410Z,46.06
2023-03-12T06:39:53.519Z,45.87
2023-03-12T06:42:20.750Z,45.78
2023-03-12T06:44:47.136Z,45.95
2023-03-12T06:47:14.013Z,45.46
2023-03-12T06:49:41.232Z,45.70
2023-03-12T06:54:52.602Z,46.12
2023-03-12T06:57:22.027Z,46.06
2023-03-12T06:59:50.543Z,46.07
2023-03-12T07:02:17.304Z,46.53
2023-03-12T07:04:43.905Z,46.25
2023-03-12T07:10:04.351Z,47.01
2023-03-12T07:12:30.769Z,46.75
2023-03-12T07:14:57.150Z,46.69
2023-03-12T07:17:24.418Z,46.87
2023-03-12T07:19:50.905Z,46.88
2023-03-12T07:25:03.998Z,46.67
2023-03-12T07:27:31.442Z,46.87
2023-03-12T07:29:58.003Z,47.04
2023-03-12T07:32:25.447Z,46.58
2023-03-12T07:34:52.919Z,46.97
2023-03-12T07:40:13.437Z,47.28
2023-03-12T07:42:40.889Z,46.97
2023-03-12T07:45:07.431Z,47.43
2023-03-12T07:47:34.053Z,47.46
2023-03-12T07:50:01.685Z,47.32
2023-03-12T07:55:23.418Z,47.41
2023-03-12T07:57:49.947Z,47.88
2023-03-12T08:00:17.536Z,47.49
2023-03-12T08:02:45.768Z,47.61
2023-03-12T08:05:13.568Z,47.89
2023-03-12T08:10:35.275Z,47.78
2023-03-12T08:13:01.855Z,48.01
2023-03-12T08:15:29.262Z,47.59
2023-03-12T08:17:55.738Z,47.84
2023-03-12T08:20:23.166Z,48.07
2023-03-12T08:25:33.702Z,47.70
2023-03-12T08:28:00.186Z,47.79
2023-03-12T08:30:29.147Z,48.01
2023-03-12T08:32:56.678Z,47.66
2023-03-12T08:35:24.123Z,46.66
2023-03-12T08:40:45.671Z,47.43
2023-03-12T08:43:13.033Z,47.41
2023-03-12T08:45:39.560Z,47.13
2023-03-12T08:48:06.110Z,47.47
2023-03-12T08:50:32.574Z,47.99
2023-03-12T08:55:43.892Z,47.09
2023-03-12T08:58:10.336Z,47.13
2023-03-12T09:00:37.598Z,47.37
2023-03-12T09:03:04.981Z,47.46
2023-03-12T09:05:32.315Z,46.22
2023-03-12T09:10:46.205Z,45.76
2023-03-12T09:13:14.505Z,46.70
2023-03-12T09:15:41.021Z,45.94
2023-03-12T09:18:07.480Z,46.50
2023-03-12T09:20:36.696Z,46.58
2023-03-12T09:23:05.181Z,46.75
2023-03-12T09:25:33.998Z,46.42
2023-03-12T09:28:01.225Z,47.09
2023-03-12T09:30:28.653Z,45.32
2023-03-12T09:32:55.159Z,42.70
2023-03-12T09:35:21.624Z,46.53
2023-03-12T09:37:50.066Z,44.30
2023-03-12T09:40:17.278Z,45.18
2023-03-12T09:42:47.232Z,45.89
2023-03-12T09:45:14.704Z,46.70
2023-03-12T09:47:41.033Z,47.67
2023-03-12T09:50:07.421Z,47.34
2023-03-12T09:52:34.628Z,47.31
2023-03-12T09:55:01.001Z,47.66
2023-03-12T09:57:27.378Z,48.54
2023-03-12T09:59:53.947Z,48.96
2023-03-12T10:02:21.166Z,47.15
2023-03-12T10:04:58.973Z,47.65
2023-03-12T10:07:25.977Z,47.25
2023-03-12T10:09:52.573Z,48.24
2023-03-12T10:12:19.806Z,48.06
2023-03-12T10:14:46.143Z,45.93
2023-03-12T10:17:13.370Z,46.38
2023-03-12T10:19:39.817Z,47.08
2023-03-12T10:22:06.203Z,46.54
2023-03-12T10:24:32.527Z,46.97
2023-03-12T10:26:58.914Z,46.58
2023-03-12T10:29:25.306Z,46.40
2023-03-12T10:31:51.703Z,46.29
2023-03-12T10:34:18.063Z,46.88
2023-03-12T10:36:44.399Z,46.91
2023-03-12T10:39:10.852Z,47.64
2023-03-12T10:44:21.264Z,48.12
2023-03-12T10:46:47.648Z,48.26
2023-03-12T10:49:14.074Z,47.73
2023-03-12T10:51:40.423Z,47.58
2023-03-12T10:54:06.767Z,47.85
2023-03-12T10:59:26.909Z,47.47
2023-03-12T11:01:53.301Z,47.85
2023-03-12T11:04:20.502Z,47.42
2023-03-12T11:06:46.852Z,46.89
2023-03-12T11:09:16.955Z,46.74
2023-03-12T11:14:37.668Z,46.52
2023-03-12T11:17:04.058Z,46.60
2023-03-12T11:19:30.404Z,47.04
2023-03-12T11:21:56.884Z,46.02
2023-03-12T11:24:23.234Z,45.89
2023-03-12T11:29:33.397Z,45.65
2023-03-12T11:32:00.019Z,45.61
2023-03-12T11:34:26.496Z,45.81
2023-03-12T11:36:52.821Z,45.53
2023-03-12T11:39:19.167Z,45.19
2023-03-12T11:44:29.617Z,45.67
2023-03-12T11:46:56.035Z,45.83
2023-03-12T11:49:23.740Z,45.38
2023-03-12T11:51:50.997Z,45.15
2023-03-12T11:54:17.344Z,45.40
2023-03-12T11:59:37.800Z,44.81
2023-03-12T12:02:04.291Z,45.24
2023-03-12T12:04:30.725Z,45.08
2023-03-12T12:06:57.254Z,45.20
2023-03-12T12:09:23.618Z,45.20
2023-03-12T12:14:34.198Z,45.12
2023-03-12T12:17:00.550Z,45.33
2023-03-12T12:19:27.065Z,45.27
2023-03-12T12:21:53.440Z,44.91
2023-03-12T12:24:19.843Z,45.60
2023-03-12T12:29:40.243Z,44.80
2023-03-12T12:32:06.855Z,44.75
2023-03-12T12:34:33.254Z,44.31
2023-03-12T12:36:59.716Z,44.52
2023-03-12T12:39:26.058Z,44.67
2023-03-12T12:44:36.424Z,45.14
2023-03-12T12:47:02.746Z,44.81
2023-03-12T12:49:29.541Z,44.76
2023-03-12T12:51:55.891Z,44.84
2023-03-12T12:54:22.233Z,44.94
2023-03-12T12:59:42.548Z,44.67
2023-03-12T13:02:08.905Z,44.63
2023-03-12T13:04:35.252Z,45.07
2023-03-12T13:07:01.790Z,44.93
2023-03-12T13:09:28.144Z,44.86
2023-03-12T13:14:38.499Z,44.91
2023-03-12T13:17:04.865Z,44.87
2023-03-12T13:19:31.248Z,44.78
2023-03-12T13:21:57.584Z,44.78
2023-03-12T13:24:23.941Z,44.74
2023-03-12T13:29:34.042Z,44.43
2023-03-12T13:32:00.366Z,44.63
2023-03-12T13:34:28.244Z,44.57
2023-03-12T13:36:54.747Z,44.49
2023-03-12T13:39:21.440Z,44.30
2023-03-12T13:41:47.837Z,44.61
2023-03-12T13:44:14.227Z,44.76
2023-03-12T13:46:40.717Z,44.59
2023-03-12T13:49:07.084Z,44.86
2023-03-12T13:51:33.417Z,44.80
2023-03-12T13:53:59.813Z,44.92
2023-03-12T13:56:26.181Z,44.52
2023-03-12T13:58:52.538Z,44.73
2023-03-12T14:01:19.370Z,44.82
2023-03-12T14:03:45.802Z,44.87
2023-03-12T14:06:13.005Z,44.47
2023-03-12T14:08:40.237Z,44.62
2023-03-12T14:11:06.592Z,44.96
2023-03-12T14:13:33.096Z,44.62
2023-03-12T14:15:59.507Z,44.57
2023-03-12T14:18:25.865Z,44.77
2023-03-12T14:20:52.192Z,44.33
2023-03-12T14:23:18.571Z,44.70
2023-03-12T14:25:44.941Z,44.88
2023-03-12T14:28:11.271Z,45.03
2023-03-12T14:30:37.642Z,44.98
2023-03-12T14:33:04.041Z,44.84
2023-03-12T14:35:30.521Z,44.96
2023-03-12T14:37:56.868Z,44.64
2023-03-12T14:40:23.191Z,44.69
2023-03-12T14:42:49.533Z,45.06
2023-03-12T14:45:16.757Z,44.96
2023-03-12T14:47:43.120Z,44.45
2023-03-12T14:50:12.083Z,45.16
2023-03-12T14:52:38.438Z,45.06
2023-03-12T14:55:04.799Z,44.88
2023-03-12T14:57:31.151Z,44.91
2023-03-12T15:02:41.319Z,44.65
2023-03-12T15:05:07.767Z,44.81
2023-03-12T15:07:34.369Z,44.73
2023-03-12T15:10:00.735Z,44.84
2023-03-12T15:12:27.099Z,44.86
2023-03-12T15:17:47.203Z,44.48
2023-03-12T15:20:15.632Z,44.86
2023-03-12T15:22:42.004Z,44.78
2023-03-12T15:25:08.373Z,44.71
2023-03-12T15:27:34.748Z,43.83
2023-03-12T15:32:54.964Z,44.30
2023-03-12T15:35:21.642Z,44.76
2023-03-12T15:37:50.080Z,44.61
2023-03-12T15:40:16.522Z,44.72
2023-03-12T15:42:44.870Z,44.89
2023-03-12T15:47:55.489Z,45.14
2023-03-12T15:50:21.852Z,45.09
2023-03-12T15:52:48.206Z,45.19
2023-03-12T15:55:15.454Z,45.23
2023-03-12T15:57:41.899Z,45.30
2023-03-12T16:03:04.252Z,45.67
2023-03-12T16:05:30.708Z,45.13
2023-03-12T16:07:57.183Z,45.09
2023-03-12T16:10:23.628Z,45.46
2023-03-12T16:12:50.914Z,45.77
2023-03-12T16:18:01.220Z,45.45
2023-03-12T16:20:27.628Z,45.91
2023-03-12T16:22:54.253Z,45.50
2023-03-12T16:25:20.689Z,45.60
2023-03-12T16:27:47.141Z,45.56
2023-03-12T16:33:09.699Z,45.80
2023-03-12T16:35:37.109Z,45.76
2023-03-12T16:38:03.672Z,45.79
2023-03-12T16:40:33.598Z,46.20
2023-03-12T16:43:00.403Z,46.81
2023-03-12T16:48:12.806Z,45.61
2023-03-12T16:50:40.218Z,45.75
2023-03-12T16:53:06.662Z,46.09
2023-03-12T16:55:33.976Z,46.78
2023-03-12T16:58:00.435Z,45.96
2023-03-12T17:03:12.823Z,46.38
2023-03-12T17:05:40.150Z,46.07
2023-03-12T17:08:07.465Z,46.81
2023-03-12T17:10:33.900Z,46.59
2023-03-12T17:13:01.174Z,46.59
2023-03-12T17:18:22.371Z,47.41
2023-03-12T17:20:48.819Z,46.45
2023-03-12T17:23:15.234Z,47.37
2023-03-12T17:25:42.774Z,46.70
2023-03-12T17:28:10.048Z,47.23
2023-03-12T17:33:20.600Z,47.54
2023-03-12T17:35:47.918Z,46.77
2023-03-12T17:38:14.382Z,46.81
2023-03-12T17:40:40.774Z,47.12
2023-03-12T17:43:09.260Z,46.61
2023-03-12T17:48:19.860Z,47.08
2023-03-12T17:50:46.305Z,46.41
2023-03-12T17:53:13.653Z,46.67
2023-03-12T17:55:40.958Z,46.52
2023-03-12T17:58:07.476Z,46.39
2023-03-12T18:03:28.780Z,46.21
2023-03-12T18:05:55.279Z,46.21
2023-03-12T18:08:21.758Z,46.20
2023-03-12T18:10:49.141Z,46.82
2023-03-12T18:13:16.542Z,46.24
2023-03-12T18:18:37.789Z,46.44
2023-03-12T18:21:05.288Z,46.69
2023-03-12T18:23:31.752Z,46.54
2023-03-12T18:25:59.103Z,46.56
2023-03-12T18:28:25.541Z,46.70
2023-03-12T18:33:38.050Z,46.86
2023-03-12T18:36:04.556Z,46.26
2023-03-12T18:38:31.987Z,46.68
2023-03-12T18:40:59.576Z,46.04
2023-03-12T18:43:26.092Z,46.35
2023-03-12T18:45:52.597Z,46.41
2023-03-12T18:48:19.081Z,46.54
2023-03-12T18:50:45.903Z,46.03
2023-03-12T18:53:12.380Z,46.35
2023-03-12T18:55:38.864Z,46.40
2023-03-12T18:58:05.380Z,46.27
2023-03-12T19:00:31.902Z,46.40
2023-03-12T19:02:58.435Z,45.98
2023-03-12T19:05:25.012Z,46.38
2023-03-12T19:07:52.636Z,46.00
2023-03-12T19:10:19.171Z,46.07
2023-03-12T19:12:52.655Z,46.39
2023-03-12T19:15:20.929Z,46.24
2023-03-12T19:17:47.409Z,46.18
2023-03-12T19:20:13.913Z,46.36
2023-03-12T19:22:40.395Z,46.06
2023-03-12T19:25:07.068Z,46.33
2023-03-12T19:27:34.518Z,46.18
2023-03-12T19:30:01.009Z,46.19
2023-03-12T19:32:40.633Z,46.81
2023-03-12T19:35:10.488Z,45.98
2023-03-12T19:37:36.951Z,46.24
2023-03-12T19:40:04.402Z,45.82
2023-03-12T19:42:30.900Z,46.06
2023-03-12T19:44:57.417Z,46.05
2023-03-12T19:47:24.980Z,46.69
2023-03-12T19:49:51.475Z,46.10
2023-03-12T19:52:18.938Z,46.31
2023-03-12T19:54:54.601Z,46.12
2023-03-12T19:57:30.541Z,46.40
2023-03-12T19:59:58.202Z,46.15
2023-03-12T20:02:25.718Z,46.17
2023-03-12T20:04:52.246Z,46.28
2023-03-12T20:07:18.782Z,46.39
2023-03-12T20:09:46.241Z,46.50
2023-03-12T20:12:12.756Z,46.44
2023-03-12T20:14:42.512Z,46.45
2023-03-12T20:17:10.898Z,45.79
2023-03-12T20:19:37.395Z,46.28
2023-03-12T20:22:03.929Z,46.26
2023-03-12T20:24:30.507Z,46.47
2023-03-12T20:26:57.006Z,46.35
2023-03-12T20:29:23.520Z,46.12
2023-03-12T20:31:50.053Z,47.08
2023-03-12T20:37:12.207Z,47.60
2023-03-12T20:39:38.894Z,46.71
2023-03-12T20:42:05.415Z,47.25
2023-03-12T20:44:32.823Z,46.55
2023-03-12T20:46:59.343Z,46.53
2023-03-12T20:52:09.730Z,46.82
2023-03-12T20:54:37.160Z,46.63
2023-03-12T20:57:04.869Z,46.58
2023-03-12T20:59:32.258Z,46.83
2023-03-12T21:01:59.731Z,46.96
2023-03-12T21:04:27.145Z,46.89
2023-03-12T21:06:54.545Z,46.48
2023-03-12T21:09:21.979Z,46.07
2023-03-12T21:11:48.418Z,46.27
2023-03-12T21:14:15.076Z,46.30
2023-03-12T21:16:42.501Z,46.83
2023-03-12T21:21:53.927Z,47.13
2023-03-12T21:24:21.762Z,46.69
2023-03-12T21:26:48.242Z,46.39
2023-03-12T21:29:15.522Z,46.61
2023-03-12T21:31:43.837Z,46.63
2023-03-12T21:37:04.332Z,47.18
2023-03-12T21:39:31.744Z,46.93
2023-03-12T21:41:58.199Z,46.15
2023-03-12T21:44:25.515Z,47.08
2023-03-12T21:46:51.907Z,46.67
2023-03-12T21:52:14.030Z,46.85
2023-03-12T21:54:40.458Z,47.47
2023-03-12T21:57:08.783Z,46.91
2023-03-12T21:59:37.101Z,46.58
2023-03-12T22:02:05.438Z,46.92
2023-03-12T22:07:15.768Z,47.36
2023-03-12T22:09:42.201Z,46.87
2023-03-12T22:12:08.690Z,47.48
2023-03-12T22:14:36.926Z,48.11
2023-03-12T22:17:03.329Z,47.06
2023-03-12T22:22:25.790Z,46.99
2023-03-12T22:24:52.211Z,46.69
2023-03-12T22:27:18.656Z,47.63
2023-03-12T22:29:47.850Z,47.28
2023-03-12T22:32:14.306Z,47.30
2023-03-12T22:37:25.658Z,47.45
2023-03-12T22:39:54.808Z,46.78
2023-03-12T22:42:21.232Z,46.74
2023-03-12T22:44:47.576Z,47.07
2023-03-12T22:47:14.016Z,47.25
2023-03-12T22:52:24.698Z,46.76
2023-03-12T22:54:51.915Z,47.63
2023-03-12T22:57:18.277Z,46.91
2023-03-12T22:59:44.674Z,47.00
2023-03-12T23:02:12.012Z,47.69
2023-03-12T23:07:33.456Z,46.84
2023-03-12T23:09:59.832Z,47.40
2023-03-12T23:12:26.184Z,47.16
2023-03-12T23:14:53.458Z,46.79
2023-03-12T23:17:20.670Z,46.73
2023-03-12T23:22:31.002Z,47.01
2023-03-12T23:24:57.324Z,47.48
2023-03-12T23:27:24.533Z,47.23
2023-03-12T23:29:50.892Z,46.96
2023-03-12T23:32:17.313Z,46.65
2023-03-12T23:34:43.745Z,47.46
2023-03-12T23:37:10.187Z,46.99
2023-03-12T23:39:51.777Z,46.95
2023-03-12T23:42:21.482Z,47.10
2023-03-12T23:44:47.829Z,46.79
2023-03-12T23:47:15.037Z,47.33
2023-03-12T23:49:41.386Z,47.99
2023-03-12T23:52:07.745Z,46.73
2023-03-12T23:54:34.065Z,47.18
2023-03-12T23:57:00.424Z,47.93
2023-03-12T23:59:26.782Z,46.89
